createdAt,value
2018-06-27T00:01:36.574Z,97.00
2018-06-27T00:04:04.629Z,97.20
2018-06-27T00:06:32.701Z,97.30
2018-06-27T00:09:00.757Z,97.50
2018-06-27T00:11:28.794Z,97.50
2018-06-27T00:13:56.837Z,97.60
2018-06-27T00:16:24.892Z,97.40
2018-06-27T00:18:52.935Z,97.50
2018-06-27T00:21:20.984Z,97.30
2018-06-27T00:23:49.025Z,97.30
2018-06-27T00:26:17.076Z,97.20
2018-06-27T00:28:45.111Z,97.20
2018-06-27T00:31:13.160Z,97.20
2018-06-27T00:33:41.188Z,97.30
2018-06-27T00:36:09.232Z,97.80
2018-06-27T00:38:37.373Z,98.10
2018-06-27T00:41:05.661Z,98.20
2018-06-27T00:43:33.703Z,98.30
2018-06-27T00:46:01.745Z,98.80
2018-06-27T00:48:29.785Z,98.40
2018-06-27T00:50:57.828Z,98.60
2018-06-27T00:54:30.857Z,98.80
2018-06-27T00:56:58.905Z,98.80
2018-06-27T00:59:26.941Z,99.10
2018-06-27T01:01:54.993Z,99.20
2018-06-27T01:04:23.025Z,99.30
2018-06-27T01:06:51.073Z,99.00
2018-06-27T01:09:19.108Z,98.90
2018-06-27T01:11:47.152Z,99.20
2018-06-27T01:14:15.192Z,99.20
2018-06-27T01:16:43.245Z,99.20
2018-06-27T01:19:11.297Z,99.50
2018-06-27T01:21:39.340Z,99.90
2018-06-27T01:24:07.381Z,99.90
2018-06-27T01:26:35.464Z,99.90
2018-06-27T01:29:03.528Z,99.90
2018-06-27T01:31:31.569Z,99.90
2018-06-27T01:33:59.609Z,99.90
2018-06-27T01:36:27.653Z,99.90
2018-06-27T01:38:55.704Z,99.90
2018-06-27T01:41:24.239Z,99.90
2018-06-27T01:43:52.282Z,99.90
2018-06-27T01:46:20.329Z,99.90
2018-06-27T01:48:48.376Z,99.90
2018-06-27T01:51:16.417Z,99.90
2018-06-27T01:53:44.460Z,99.90
2018-06-27T01:56:12.501Z,99.90
2018-06-27T01:58:40.548Z,99.90
2018-06-27T02:01:08.680Z,99.90
2018-06-27T02:03:36.730Z,99.90
2018-06-27T02:06:04.773Z,99.90
2018-06-27T02:08:32.817Z,99.90
2018-06-27T02:11:00.864Z,99.90
2018-06-27T02:13:28.913Z,99.90
2018-06-27T02:15:56.956Z,99.90
2018-06-27T02:18:25.005Z,99.90
2018-06-27T02:20:53.053Z,99.90
2018-06-27T02:23:21.101Z,99.90
2018-06-27T02:25:49.149Z,99.90
2018-06-27T02:28:17.184Z,99.90
2018-06-27T02:30:45.233Z,99.90
2018-06-27T02:33:18.893Z,99.90
2018-06-27T02:35:46.937Z,99.90
2018-06-27T02:38:14.977Z,99.90
2018-06-27T02:40:43.050Z,99.90
2018-06-27T02:43:11.113Z,99.90
2018-06-27T02:45:39.176Z,99.90
2018-06-27T02:48:07.225Z,99.90
2018-06-27T02:50:35.280Z,99.90
2018-06-27T02:53:03.341Z,99.90
2018-06-27T02:55:31.393Z,99.90
2018-06-27T02:57:59.432Z,99.90
2018-06-27T03:00:27.478Z,99.90
2018-06-27T03:02:55.529Z,99.90
2018-06-27T03:05:23.583Z,99.90
2018-06-27T03:07:51.620Z,99.90
2018-06-27T03:10:20.102Z,99.90
2018-06-27T03:12:48.145Z,99.90
2018-06-27T03:15:16.197Z,99.90
2018-06-27T03:17:44.240Z,99.90
2018-06-27T03:20:12.289Z,99.90
2018-06-27T03:22:40.362Z,99.90
2018-06-27T03:25:08.517Z,99.90
2018-06-27T03:27:36.560Z,99.90
2018-06-27T03:30:05.067Z,99.90
2018-06-27T03:32:33.105Z,99.90
2018-06-27T03:35:01.149Z,99.90
2018-06-27T03:37:29.185Z,99.90
2018-06-27T03:39:57.274Z,99.90
2018-06-27T03:42:25.329Z,99.90
2018-06-27T03:44:53.393Z,99.90
2018-06-27T03:47:21.452Z,99.90
2018-06-27T03:49:49.520Z,99.90
2018-06-27T03:52:17.596Z,99.90
2018-06-27T03:54:45.668Z,99.90
2018-06-27T03:57:13.721Z,99.90
2018-06-27T03:59:41.789Z,99.90
2018-06-27T04:02:09.853Z,99.90
2018-06-27T04:04:37.924Z,99.90
2018-06-27T04:07:05.986Z,99.90
2018-06-27T04:09:34.062Z,99.90
2018-06-27T04:12:02.157Z,99.90
2018-06-27T04:14:30.278Z,99.90
2018-06-27T04:16:58.286Z,99.90
2018-06-27T04:19:26.345Z,99.90
2018-06-27T04:21:54.409Z,99.90
2018-06-27T04:24:22.469Z,99.90
2018-06-27T04:26:50.536Z,99.90
2018-06-27T04:29:18.609Z,99.90
2018-06-27T04:31:46.683Z,99.90
2018-06-27T04:34:14.732Z,99.90
2018-06-27T04:36:42.791Z,99.90
2018-06-27T04:39:11.794Z,99.90
2018-06-27T04:41:40.244Z,99.90
2018-06-27T04:44:08.481Z,99.90
2018-06-27T04:46:36.881Z,99.90
2018-06-27T04:49:04.917Z,99.90
2018-06-27T04:51:33.455Z,99.90
2018-06-27T04:54:01.497Z,99.90
2018-06-27T04:58:57.461Z,99.90
2018-06-27T05:01:25.508Z,99.90
2018-06-27T05:03:53.548Z,99.90
2018-06-27T05:06:21.604Z,99.90
2018-06-27T05:08:49.653Z,99.90
2018-06-27T05:11:17.710Z,99.90
2018-06-27T05:13:45.752Z,99.90
2018-06-27T05:16:13.804Z,99.90
2018-06-27T05:18:41.837Z,99.90
2018-06-27T05:21:09.880Z,99.90
2018-06-27T05:23:37.927Z,99.90
2018-06-27T05:26:05.972Z,99.90
2018-06-27T05:28:34.045Z,99.90
2018-06-27T05:31:02.095Z,99.90
2018-06-27T05:33:30.124Z,99.90
2018-06-27T05:35:58.185Z,99.90
2018-06-27T05:38:26.228Z,99.90
2018-06-27T05:40:54.289Z,99.90
2018-06-27T05:43:22.329Z,99.90
2018-06-27T05:45:50.701Z,99.90
2018-06-27T05:48:18.741Z,99.90
2018-06-27T05:50:46.853Z,99.90
2018-06-27T05:53:14.885Z,99.90
2018-06-27T05:55:42.932Z,99.90
2018-06-27T05:58:11.039Z,99.90
2018-06-27T06:00:39.017Z,99.90
2018-06-27T06:03:07.053Z,99.90
2018-06-27T06:05:35.099Z,99.90
2018-06-27T06:08:03.134Z,99.90
2018-06-27T06:10:31.441Z,99.80
2018-06-27T06:12:59.480Z,99.70
2018-06-27T06:15:27.529Z,99.70
2018-06-27T06:17:55.700Z,99.10
2018-06-27T06:20:23.743Z,98.50
2018-06-27T06:22:51.788Z,98.40
2018-06-27T06:25:19.835Z,98.00
2018-06-27T06:27:47.885Z,96.40
2018-06-27T06:30:15.925Z,94.60
2018-06-27T06:32:43.965Z,93.60
2018-06-27T06:35:12.015Z,91.10
2018-06-27T06:37:40.061Z,89.80
2018-06-27T06:40:08.127Z,85.20
2018-06-27T06:42:36.197Z,82.40
2018-06-27T06:45:04.256Z,78.50
2018-06-27T06:47:32.353Z,75.80
2018-06-27T06:50:00.409Z,73.40
2018-06-27T06:52:28.470Z,70.90
2018-06-27T06:54:56.508Z,68.00
2018-06-27T06:57:24.566Z,66.60
2018-06-27T06:59:53.413Z,63.90
2018-06-27T07:02:21.462Z,61.90
2018-06-27T07:04:49.534Z,60.30
2018-06-27T07:07:17.552Z,59.90
2018-06-27T07:09:45.606Z,59.50
2018-06-27T07:12:13.661Z,59.00
2018-06-27T07:14:41.707Z,58.40
2018-06-27T07:17:09.753Z,58.40
2018-06-27T07:19:37.796Z,58.70
2018-06-27T07:22:05.841Z,58.60
2018-06-27T07:24:33.889Z,58.90
2018-06-27T07:27:01.961Z,60.10
2018-06-27T07:29:30.006Z,60.00
2018-06-27T07:31:58.057Z,60.80
2018-06-27T07:34:26.146Z,61.80
2018-06-27T07:36:54.256Z,63.20
2018-06-27T07:39:22.321Z,63.40
2018-06-27T07:41:50.394Z,64.60
2018-06-27T07:44:18.549Z,66.50
2018-06-27T07:46:46.569Z,66.70
2018-06-27T07:49:14.635Z,65.50
2018-06-27T07:51:42.701Z,67.30
2018-06-27T07:54:10.774Z,66.50
2018-06-27T07:56:38.841Z,67.10
2018-06-27T07:59:06.909Z,68.40
2018-06-27T08:01:34.969Z,68.50
2018-06-27T08:04:03.037Z,69.00
2018-06-27T08:06:35.593Z,69.80
2018-06-27T08:09:05.838Z,68.40
2018-06-27T08:11:33.901Z,68.90
2018-06-27T08:14:01.973Z,68.90
2018-06-27T08:16:30.037Z,69.70
2018-06-27T08:18:58.098Z,66.60
2018-06-27T08:21:26.169Z,68.30
2018-06-27T08:23:54.283Z,67.70
2018-06-27T08:26:22.429Z,67.30
2018-06-27T08:28:50.377Z,67.40
2018-06-27T08:31:18.437Z,66.80
2018-06-27T08:33:46.514Z,67.10
2018-06-27T08:36:14.577Z,65.30
2018-06-27T08:38:42.640Z,67.30
2018-06-27T08:41:10.685Z,66.30
2018-06-27T08:43:38.773Z,66.90
2018-06-27T08:46:06.776Z,64.80
2018-06-27T08:48:34.830Z,65.10
2018-06-27T08:51:02.876Z,65.10
2018-06-27T08:53:30.929Z,64.50
2018-06-27T08:55:58.980Z,63.20
2018-06-27T08:58:27.028Z,64.40
2018-06-27T09:00:55.081Z,62.10
2018-06-27T09:03:23.125Z,60.70
2018-06-27T09:05:51.189Z,61.10
2018-06-27T09:08:19.243Z,60.50
2018-06-27T09:10:47.293Z,60.70
2018-06-27T09:13:15.344Z,59.00
2018-06-27T09:15:43.400Z,57.80
2018-06-27T09:18:11.472Z,58.70
2018-06-27T09:20:39.518Z,57.00
2018-06-27T09:23:07.598Z,57.10
2018-06-27T09:25:35.629Z,58.00
2018-06-27T09:28:03.684Z,57.20
2018-06-27T09:30:31.738Z,56.80
2018-06-27T09:32:59.787Z,57.80
2018-06-27T09:35:27.834Z,55.60
2018-06-27T09:37:55.881Z,56.00
2018-06-27T09:40:23.950Z,56.00
2018-06-27T09:42:52.006Z,55.70
2018-06-27T09:45:20.063Z,55.00
2018-06-27T09:47:48.108Z,56.20
2018-06-27T09:50:16.232Z,55.10
2018-06-27T09:52:44.225Z,56.60
2018-06-27T09:55:12.289Z,55.30
2018-06-27T09:57:40.337Z,55.20
2018-06-27T10:00:12.637Z,55.60
2018-06-27T10:02:40.685Z,53.20
2018-06-27T10:05:08.806Z,52.70
2018-06-27T10:07:36.868Z,52.90
2018-06-27T10:10:04.908Z,52.70
2018-06-27T10:12:32.953Z,53.10
2018-06-27T10:15:01.012Z,54.50
2018-06-27T10:17:29.046Z,54.00
2018-06-27T10:19:57.115Z,55.50
2018-06-27T10:22:25.237Z,53.40
2018-06-27T10:24:53.238Z,51.80
2018-06-27T10:27:21.289Z,51.10
2018-06-27T10:29:49.340Z,50.60
2018-06-27T10:32:17.440Z,51.00
2018-06-27T10:34:45.552Z,51.80
2018-06-27T10:37:13.601Z,51.70
2018-06-27T10:39:41.682Z,51.60
2018-06-27T10:42:09.741Z,50.80
2018-06-27T10:44:37.997Z,51.30
2018-06-27T10:47:06.013Z,51.20
2018-06-27T10:49:34.074Z,49.60
2018-06-27T10:52:02.160Z,49.80
2018-06-27T10:54:30.217Z,49.50
2018-06-27T10:56:58.308Z,49.30
2018-06-27T10:59:26.369Z,49.80
2018-06-27T11:01:54.453Z,50.10
2018-06-27T11:04:22.540Z,48.70
2018-06-27T11:06:50.618Z,47.70
2018-06-27T11:09:18.678Z,49.60
2018-06-27T11:11:46.744Z,50.60
2018-06-27T11:14:14.866Z,50.10
2018-06-27T11:16:42.916Z,52.40
2018-06-27T11:19:10.981Z,51.50
2018-06-27T11:21:39.045Z,51.50
2018-06-27T11:24:07.141Z,50.80
2018-06-27T11:26:35.205Z,50.70
2018-06-27T11:29:03.276Z,50.10
2018-06-27T11:31:31.349Z,49.90
2018-06-27T11:33:59.417Z,49.60
2018-06-27T11:36:27.488Z,49.50
2018-06-27T11:38:55.562Z,47.70
2018-06-27T11:41:23.807Z,47.40
2018-06-27T11:43:51.854Z,46.60
2018-06-27T11:46:19.953Z,47.10
2018-06-27T11:48:48.021Z,46.70
2018-06-27T11:51:16.089Z,45.50
2018-06-27T11:53:44.162Z,45.50
2018-06-27T11:56:12.245Z,46.80
2018-06-27T11:58:40.309Z,43.30
2018-06-27T12:01:08.369Z,43.80
2018-06-27T12:03:36.449Z,42.70
2018-06-27T12:06:04.509Z,40.80
2018-06-27T12:08:32.658Z,40.10
2018-06-27T12:11:00.653Z,43.60
2018-06-27T12:13:28.722Z,42.00
2018-06-27T12:15:56.785Z,40.00
2018-06-27T12:18:24.877Z,41.10
2018-06-27T12:20:52.949Z,40.40
2018-06-27T12:23:21.027Z,40.80
2018-06-27T12:25:49.089Z,40.70
2018-06-27T12:28:17.165Z,42.20
2018-06-27T12:30:45.233Z,43.70
2018-06-27T12:33:13.316Z,44.10
2018-06-27T12:35:41.397Z,41.70
2018-06-27T12:38:09.469Z,41.70
2018-06-27T12:40:37.572Z,41.60
2018-06-27T12:43:05.768Z,43.70
2018-06-27T12:45:33.833Z,43.40
2018-06-27T12:48:01.897Z,44.30
2018-06-27T12:50:29.948Z,42.80
2018-06-27T12:52:58.005Z,45.30
2018-06-27T12:55:26.108Z,45.30
2018-06-27T12:57:54.156Z,45.10
2018-06-27T13:00:22.248Z,44.80
2018-06-27T13:02:50.271Z,41.90
2018-06-27T13:05:18.301Z,43.50
2018-06-27T13:07:46.359Z,44.70
2018-06-27T13:10:14.425Z,44.90
2018-06-27T13:12:42.473Z,45.90
2018-06-27T13:15:10.541Z,45.90
2018-06-27T13:17:38.598Z,46.80
2018-06-27T13:20:06.798Z,47.20
2018-06-27T13:22:34.849Z,46.90
2018-06-27T13:25:02.905Z,47.90
2018-06-27T13:27:30.969Z,48.90
2018-06-27T13:29:59.026Z,48.70
2018-06-27T13:32:27.076Z,49.30
2018-06-27T13:34:55.286Z,49.90
2018-06-27T13:37:23.250Z,48.30
2018-06-27T13:39:51.328Z,48.50
2018-06-27T13:42:19.429Z,47.40
2018-06-27T13:44:47.510Z,48.70
2018-06-27T13:47:15.581Z,48.20
2018-06-27T13:52:11.521Z,47.60
2018-06-27T13:54:39.592Z,45.80
2018-06-27T13:57:07.662Z,46.80
2018-06-27T13:59:35.789Z,48.30
2018-06-27T14:02:03.864Z,48.70
2018-06-27T14:04:31.945Z,49.40
2018-06-27T14:07:00.018Z,48.90
2018-06-27T14:09:28.077Z,47.70
2018-06-27T14:11:56.150Z,46.70
2018-06-27T14:14:24.213Z,46.40
2018-06-27T14:16:52.280Z,44.60
2018-06-27T14:19:20.352Z,47.50
2018-06-27T14:21:48.428Z,48.90
2018-06-27T14:24:16.548Z,49.00
2018-06-27T14:26:44.601Z,49.00
2018-06-27T14:29:12.693Z,49.20
2018-06-27T14:31:40.812Z,49.60
2018-06-27T14:34:08.895Z,47.40
2018-06-27T14:36:36.953Z,47.70
2018-06-27T14:41:34.426Z,47.50
2018-06-27T14:44:02.600Z,49.30
2018-06-27T14:46:30.553Z,49.10
2018-06-27T14:48:58.577Z,48.30
2018-06-27T14:51:26.676Z,48.10
2018-06-27T14:53:54.716Z,49.60
2018-06-27T14:56:22.764Z,49.70
2018-06-27T14:58:50.813Z,49.20
2018-06-27T15:01:18.873Z,48.30
2018-06-27T15:03:46.918Z,49.50
2018-06-27T15:06:14.975Z,46.80
2018-06-27T15:08:43.549Z,47.60
2018-06-27T15:11:11.671Z,48.90
2018-06-27T15:13:39.726Z,47.30
2018-06-27T15:16:07.801Z,50.50
2018-06-27T15:18:37.831Z,48.40
2018-06-27T15:21:05.925Z,50.10
2018-06-27T15:23:34.036Z,50.00
2018-06-27T15:26:02.009Z,50.10
2018-06-27T15:28:30.059Z,50.00
2018-06-27T15:30:58.108Z,50.90
2018-06-27T15:33:26.170Z,50.60
2018-06-27T15:35:54.201Z,50.20
2018-06-27T15:38:22.265Z,48.50
2018-06-27T15:40:50.589Z,48.20
2018-06-27T15:43:18.645Z,51.10
2018-06-27T15:45:46.682Z,48.10
2018-06-27T15:48:14.764Z,49.20
2018-06-27T15:50:42.814Z,50.60
2018-06-27T15:53:10.873Z,52.10
2018-06-27T15:55:38.913Z,52.90
2018-06-27T15:58:06.970Z,50.60
2018-06-27T16:00:35.012Z,50.20
2018-06-27T16:03:03.061Z,47.90
2018-06-27T16:05:31.120Z,50.60
2018-06-27T16:07:59.261Z,52.10
2018-06-27T16:10:27.349Z,50.40
2018-06-27T16:12:55.382Z,51.30
2018-06-27T16:15:23.454Z,50.00
2018-06-27T16:17:51.515Z,51.20
2018-06-27T16:20:19.565Z,51.30
2018-06-27T16:22:47.612Z,50.60
2018-06-27T16:25:15.665Z,51.30
2018-06-27T16:27:43.707Z,51.70
2018-06-27T16:30:11.757Z,50.20
2018-06-27T16:32:39.798Z,50.80
2018-06-27T16:35:07.842Z,51.00
2018-06-27T16:37:35.877Z,51.70
2018-06-27T16:42:31.815Z,51.20
2018-06-27T16:44:59.889Z,51.10
2018-06-27T16:47:27.937Z,51.40
2018-06-27T16:49:55.993Z,51.00
2018-06-27T16:52:24.061Z,52.80
2018-06-27T16:54:52.239Z,52.10
2018-06-27T16:57:20.265Z,50.60
2018-06-27T16:59:48.385Z,51.40
2018-06-27T17:02:16.458Z,51.40
2018-06-27T17:04:44.509Z,51.90
2018-06-27T17:07:12.572Z,52.70
2018-06-27T17:09:40.625Z,51.90
2018-06-27T17:12:09.236Z,52.10
2018-06-27T17:14:37.329Z,50.90
2018-06-27T17:17:05.413Z,50.80
2018-06-27T17:19:33.474Z,50.90
2018-06-27T17:22:01.534Z,52.00
2018-06-27T17:24:29.589Z,52.90
2018-06-27T17:26:57.665Z,52.60
2018-06-27T17:29:25.727Z,54.20
2018-06-27T17:31:53.856Z,55.40
2018-06-27T17:34:21.828Z,54.00
2018-06-27T17:36:49.888Z,54.90
2018-06-27T17:39:17.965Z,53.60
2018-06-27T17:41:46.029Z,54.50
2018-06-27T17:44:14.080Z,54.60
2018-06-27T17:46:42.157Z,52.20
2018-06-27T17:49:10.229Z,53.40
2018-06-27T17:51:38.309Z,53.60
2018-06-27T17:54:06.365Z,52.30
2018-06-27T17:56:34.441Z,55.00
2018-06-27T17:59:03.001Z,54.00
2018-06-27T18:01:31.112Z,56.00
2018-06-27T18:03:59.117Z,55.60
2018-06-27T18:06:27.181Z,57.80
2018-06-27T18:08:55.315Z,57.20
2018-06-27T18:11:23.345Z,57.30
2018-06-27T18:13:51.422Z,57.30
2018-06-27T18:16:19.481Z,57.10
2018-06-27T18:18:47.537Z,57.80
2018-06-27T18:21:15.605Z,59.20
2018-06-27T18:23:43.739Z,59.80
2018-06-27T18:26:13.036Z,59.30
2018-06-27T18:28:41.113Z,59.00
2018-06-27T18:31:09.181Z,58.10
2018-06-27T18:33:37.253Z,59.30
2018-06-27T18:36:05.327Z,59.20
2018-06-27T18:38:33.385Z,59.40
2018-06-27T18:41:01.461Z,58.90
2018-06-27T18:43:29.561Z,59.30
2018-06-27T18:45:57.612Z,60.10
2018-06-27T18:50:53.554Z,60.60
2018-06-27T18:53:21.616Z,61.60
2018-06-27T18:55:50.061Z,62.90
2018-06-27T18:58:18.125Z,60.90
2018-06-27T19:00:46.181Z,61.10
2018-06-27T19:03:14.362Z,61.30
2018-06-27T19:05:42.428Z,62.20
2018-06-27T19:08:10.523Z,61.50
2018-06-27T19:10:38.557Z,61.80
2018-06-27T19:13:06.629Z,62.40
2018-06-27T19:15:34.709Z,63.20
2018-06-27T19:18:02.794Z,63.50
2018-06-27T19:20:30.829Z,64.00
2018-06-27T19:22:58.893Z,64.70
2018-06-27T19:25:27.009Z,64.80
2018-06-27T19:27:55.123Z,66.10
2018-06-27T19:30:23.132Z,68.00
2018-06-27T19:32:51.181Z,68.80
2018-06-27T19:35:19.249Z,70.20
2018-06-27T19:37:47.322Z,70.60
2018-06-27T19:40:15.405Z,70.20
2018-06-27T19:42:43.457Z,69.60
2018-06-27T19:45:11.513Z,69.80
2018-06-27T19:47:39.585Z,69.70
2018-06-27T19:50:07.649Z,68.80
2018-06-27T19:52:35.721Z,68.90
2018-06-27T19:55:03.838Z,70.50
2018-06-27T19:57:31.908Z,70.80
2018-06-27T19:59:59.965Z,71.10
2018-06-27T20:02:28.157Z,70.80
2018-06-27T20:04:56.373Z,71.30
2018-06-27T20:07:24.639Z,72.00
2018-06-27T20:09:52.845Z,73.20
2018-06-27T20:12:20.912Z,72.50
2018-06-27T20:14:48.990Z,72.50
2018-06-27T20:17:17.061Z,73.20
2018-06-27T20:19:51.660Z,74.60
2018-06-27T20:22:19.778Z,75.00
2018-06-27T20:24:47.914Z,74.30
2018-06-27T20:27:15.985Z,73.70
2018-06-27T20:29:44.041Z,73.30
2018-06-27T20:32:12.104Z,73.80
2018-06-27T20:34:40.240Z,74.20
2018-06-27T20:37:08.291Z,73.50
2018-06-27T20:39:36.341Z,74.00
2018-06-27T20:42:04.440Z,73.00
2018-06-27T20:44:32.473Z,72.40
2018-06-27T20:47:00.529Z,72.60
2018-06-27T20:49:28.764Z,72.80
2018-06-27T20:51:56.833Z,72.60
2018-06-27T20:54:24.881Z,73.00
2018-06-27T20:56:53.148Z,73.30
2018-06-27T20:59:22.366Z,72.60
2018-06-27T21:01:50.485Z,72.90
2018-06-27T21:04:19.014Z,73.30
2018-06-27T21:06:47.084Z,72.90
2018-06-27T21:09:15.504Z,74.20
2018-06-27T21:11:43.643Z,73.70
2018-06-27T21:14:11.681Z,74.10
2018-06-27T21:16:39.748Z,74.30
2018-06-27T21:19:07.809Z,73.70
2018-06-27T21:21:35.854Z,74.10
2018-06-27T21:24:03.950Z,75.30
2018-06-27T21:26:31.994Z,75.50
2018-06-27T21:29:00.280Z,75.60
2018-06-27T21:31:28.357Z,76.60
2018-06-27T21:33:56.455Z,77.40
2018-06-27T21:36:24.489Z,77.50
2018-06-27T21:38:52.565Z,77.60
2018-06-27T21:41:20.617Z,77.20
2018-06-27T21:43:48.662Z,77.30
2018-06-27T21:46:16.701Z,77.50
2018-06-27T21:48:44.984Z,78.00
2018-06-27T21:51:13.029Z,79.30
2018-06-27T21:53:41.077Z,79.40
2018-06-27T21:56:09.109Z,78.00
2018-06-27T21:58:37.162Z,77.60
2018-06-27T22:01:05.241Z,78.00
2018-06-27T22:03:33.293Z,77.90
2018-06-27T22:06:01.342Z,77.10
2018-06-27T22:08:29.373Z,75.90
2018-06-27T22:10:57.421Z,76.20
2018-06-27T22:13:25.461Z,76.20
2018-06-27T22:15:53.515Z,76.50
2018-06-27T22:18:21.545Z,77.60
2018-06-27T22:20:49.593Z,78.90
2018-06-27T22:23:17.660Z,79.00
2018-06-27T22:25:45.711Z,78.10
2018-06-27T22:28:13.744Z,78.90
2018-06-27T22:30:41.797Z,79.50
2018-06-27T22:33:09.847Z,80.00
2018-06-27T22:35:37.901Z,80.70
2018-06-27T22:40:34.005Z,81.70
2018-06-27T22:43:02.200Z,83.30
2018-06-27T22:45:30.245Z,83.90
2018-06-27T22:47:58.281Z,84.50
2018-06-27T22:50:26.343Z,84.60
2018-06-27T22:52:54.401Z,85.10
2018-06-27T22:55:22.453Z,84.90
2018-06-27T22:57:50.489Z,84.40
2018-06-27T23:00:21.410Z,84.00
2018-06-27T23:05:17.391Z,82.90
2018-06-27T23:07:45.437Z,83.40
2018-06-27T23:10:13.477Z,85.20
2018-06-27T23:12:41.529Z,85.80
2018-06-27T23:15:09.565Z,86.10
2018-06-27T23:17:37.609Z,86.10
2018-06-27T23:20:05.668Z,86.80
2018-06-27T23:25:09.050Z,85.60
2018-06-27T23:27:37.082Z,85.30
2018-06-27T23:30:05.685Z,85.30
2018-06-27T23:32:33.740Z,85.60
2018-06-27T23:35:01.794Z,87.00
2018-06-27T23:37:29.849Z,87.00
2018-06-27T23:42:25.773Z,87.70
2018-06-27T23:44:53.848Z,87.20
2018-06-27T23:47:21.897Z,87.00
2018-06-27T23:49:49.969Z,86.80
2018-06-27T23:52:18.025Z,87.00
2018-06-27T23:54:46.092Z,86.40
2018-06-27T23:57:14.148Z,87.20
2018-06-27T23:59:42.221Z,86.80
